sensor_id;sensor_type;location;lat;lon;timestamp;P1;durP1;ratioP1;P2;durP2;ratioP2
19456;SDS011;9867;48.094;11.478;2022-12-29T00:01:20;2.10;;;2.00;;
19456;SDS011;9867;48.094;11.478;2022-12-29T00:03:47;2.17;;;1.97;;
19456;SDS011;9867;48.094;11.478;2022-12-29T00:06:13;2.17;;;2.07;;
19456;SDS011;9867;48.094;11.478;2022-12-29T00:08:40;1.87;;;1.77;;
19456;SDS011;9867;48.094;11.478;2022-12-29T00:11:07;1.80;;;1.70;;
19456;SDS011;9867;48.094;11.478;2022-12-29T00:13:35;1.60;;;1.50;;
19456;SDS011;9867;48.094;11.478;2022-12-29T00:16:20;1.80;;;1.70;;
19456;SDS011;9867;48.094;11.478;2022-12-29T00:18:46;1.50;;;1.50;;
19456;SDS011;9867;48.094;11.478;2022-12-29T00:21:13;3.20;;;2.00;;
19456;SDS011;9867;48.094;11.478;2022-12-29T00:23:58;1.70;;;1.60;;
19456;SDS011;9867;48.094;11.478;2022-12-29T00:26:49;2.00;;;1.90;;
19456;SDS011;9867;48.094;11.478;2022-12-29T00:29:37;1.73;;;1.40;;
19456;SDS011;9867;48.094;11.478;2022-12-29T00:32:22;1.67;;;1.57;;
19456;SDS011;9867;48.094;11.478;2022-12-29T00:35:07;1.97;;;1.60;;
19456;SDS011;9867;48.094;11.478;2022-12-29T00:37:35;1.97;;;1.87;;
19456;SDS011;9867;48.094;11.478;2022-12-29T00:40:23;1.90;;;1.80;;
19456;SDS011;9867;48.094;11.478;2022-12-29T00:43:08;1.50;;;1.40;;
19456;SDS011;9867;48.094;11.478;2022-12-29T00:45:54;1.57;;;1.47;;
19456;SDS011;9867;48.094;11.478;2022-12-29T00:48:20;2.17;;;1.40;;
19456;SDS011;9867;48.094;11.478;2022-12-29T00:51:02;1.67;;;1.57;;
19456;SDS011;9867;48.094;11.478;2022-12-29T00:53:28;1.70;;;1.60;;
19456;SDS011;9867;48.094;11.478;2022-12-29T00:55:55;1.67;;;1.57;;
19456;SDS011;9867;48.094;11.478;2022-12-29T00:58:21;1.60;;;1.50;;
19456;SDS011;9867;48.094;11.478;2022-12-29T01:00:47;1.70;;;1.60;;
19456;SDS011;9867;48.094;11.478;2022-12-29T01:03:15;1.53;;;1.43;;
19456;SDS011;9867;48.094;11.478;2022-12-29T01:05:42;1.60;;;1.50;;
19456;SDS011;9867;48.094;11.478;2022-12-29T01:08:08;1.60;;;1.50;;
19456;SDS011;9867;48.094;11.478;2022-12-29T01:10:35;1.70;;;1.60;;
19456;SDS011;9867;48.094;11.478;2022-12-29T01:13:01;1.67;;;1.57;;
19456;SDS011;9867;48.094;11.478;2022-12-29T01:15:27;1.40;;;1.40;;
19456;SDS011;9867;48.094;11.478;2022-12-29T01:17:54;1.33;;;1.27;;
19456;SDS011;9867;48.094;11.478;2022-12-29T01:20:21;1.50;;;1.40;;
19456;SDS011;9867;48.094;11.478;2022-12-29T01:22:47;1.67;;;1.57;;
19456;SDS011;9867;48.094;11.478;2022-12-29T01:25:13;2.83;;;1.50;;
19456;SDS011;9867;48.094;11.478;2022-12-29T01:27:40;1.20;;;1.20;;
19456;SDS011;9867;48.094;11.478;2022-12-29T01:30:07;1.60;;;1.50;;
19456;SDS011;9867;48.094;11.478;2022-12-29T01:32:34;1.53;;;1.50;;
19456;SDS011;9867;48.094;11.478;2022-12-29T01:35:01;3.20;;;1.43;;
19456;SDS011;9867;48.094;11.478;2022-12-29T01:37:28;1.67;;;1.57;;
19456;SDS011;9867;48.094;11.478;2022-12-29T01:39:54;1.60;;;1.50;;
19456;SDS011;9867;48.094;11.478;2022-12-29T01:42:22;4.10;;;1.70;;
19456;SDS011;9867;48.094;11.478;2022-12-29T01:44:52;1.70;;;1.60;;
19456;SDS011;9867;48.094;11.478;2022-12-29T01:47:26;1.57;;;1.47;;
19456;SDS011;9867;48.094;11.478;2022-12-29T01:49:58;1.30;;;1.30;;
19456;SDS011;9867;48.094;11.478;2022-12-29T01:52:32;2.10;;;1.90;;
19456;SDS011;9867;48.094;11.478;2022-12-29T01:55:01;1.57;;;1.47;;
19456;SDS011;9867;48.094;11.478;2022-12-29T01:57:29;1.40;;;1.30;;
19456;SDS011;9867;48.094;11.478;2022-12-29T02:00:00;1.07;;;1.07;;
19456;SDS011;9867;48.094;11.478;2022-12-29T02:02:38;1.33;;;1.23;;
19456;SDS011;9867;48.094;11.478;2022-12-29T02:05:09;1.50;;;1.40;;
19456;SDS011;9867;48.094;11.478;2022-12-29T02:07:40;1.50;;;1.40;;
19456;SDS011;9867;48.094;11.478;2022-12-29T02:10:09;1.70;;;1.60;;
19456;SDS011;9867;48.094;11.478;2022-12-29T02:12:35;1.23;;;1.23;;
19456;SDS011;9867;48.094;11.478;2022-12-29T02:15:02;1.23;;;1.23;;
19456;SDS011;9867;48.094;11.478;2022-12-29T02:17:35;1.53;;;1.43;;
19456;SDS011;9867;48.094;11.478;2022-12-29T02:23:10;1.40;;;1.40;;
19456;SDS011;9867;48.094;11.478;2022-12-29T02:25:55;1.87;;;1.40;;
19456;SDS011;9867;48.094;11.478;2022-12-29T02:28:53;1.50;;;1.50;;
19456;SDS011;9867;48.094;11.478;2022-12-29T02:31:40;1.20;;;1.10;;
19456;SDS011;9867;48.094;11.478;2022-12-29T02:34:10;1.37;;;1.27;;
19456;SDS011;9867;48.094;11.478;2022-12-29T02:36:51;1.20;;;1.20;;
19456;SDS011;9867;48.094;11.478;2022-12-29T02:39:30;1.43;;;1.33;;
19456;SDS011;9867;48.094;11.478;2022-12-29T02:42:05;1.30;;;1.20;;
19456;SDS011;9867;48.094;11.478;2022-12-29T02:44:41;2.30;;;1.50;;
19456;SDS011;9867;48.094;11.478;2022-12-29T02:47:18;1.47;;;1.37;;
19456;SDS011;9867;48.094;11.478;2022-12-29T02:49:51;1.30;;;1.30;;
19456;SDS011;9867;48.094;11.478;2022-12-29T02:52:26;1.63;;;1.53;;
19456;SDS011;9867;48.094;11.478;2022-12-29T02:54:57;1.30;;;1.30;;
19456;SDS011;9867;48.094;11.478;2022-12-29T02:57:28;2.13;;;1.50;;
19456;SDS011;9867;48.094;11.478;2022-12-29T02:59:58;1.33;;;1.23;;
19456;SDS011;9867;48.094;11.478;2022-12-29T03:05:49;1.57;;;1.50;;
19456;SDS011;9867;48.094;11.478;2022-12-29T03:08:28;1.53;;;1.50;;
19456;SDS011;9867;48.094;11.478;2022-12-29T03:11:02;1.60;;;1.50;;
19456;SDS011;9867;48.094;11.478;2022-12-29T03:13:33;1.50;;;1.40;;
19456;SDS011;9867;48.094;11.478;2022-12-29T03:16:24;1.47;;;1.37;;
19456;SDS011;9867;48.094;11.478;2022-12-29T03:18:59;1.70;;;1.60;;
19456;SDS011;9867;48.094;11.478;2022-12-29T03:21:30;1.27;;;1.27;;
19456;SDS011;9867;48.094;11.478;2022-12-29T03:24:19;2.10;;;1.40;;
19456;SDS011;9867;48.094;11.478;2022-12-29T03:26:50;1.80;;;1.60;;
19456;SDS011;9867;48.094;11.478;2022-12-29T03:29:19;1.70;;;1.60;;
19456;SDS011;9867;48.094;11.478;2022-12-29T03:31:48;1.70;;;1.60;;
19456;SDS011;9867;48.094;11.478;2022-12-29T03:34:16;1.50;;;1.40;;
19456;SDS011;9867;48.094;11.478;2022-12-29T03:36:47;1.30;;;1.30;;
19456;SDS011;9867;48.094;11.478;2022-12-29T03:39:16;1.47;;;1.37;;
19456;SDS011;9867;48.094;11.478;2022-12-29T03:41:47;1.70;;;1.60;;
19456;SDS011;9867;48.094;11.478;2022-12-29T03:44:18;1.80;;;1.70;;
19456;SDS011;9867;48.094;11.478;2022-12-29T03:46:45;1.83;;;1.53;;
19456;SDS011;9867;48.094;11.478;2022-12-29T03:49:11;1.67;;;1.57;;
19456;SDS011;9867;48.094;11.478;2022-12-29T03:51:39;1.87;;;1.77;;
19456;SDS011;9867;48.094;11.478;2022-12-29T03:54:06;1.47;;;1.37;;
19456;SDS011;9867;48.094;11.478;2022-12-29T03:56:33;1.50;;;1.30;;
19456;SDS011;9867;48.094;11.478;2022-12-29T03:59:00;1.57;;;1.47;;
19456;SDS011;9867;48.094;11.478;2022-12-29T04:01:30;1.20;;;1.20;;
19456;SDS011;9867;48.094;11.478;2022-12-29T04:03:57;1.53;;;1.37;;
19456;SDS011;9867;48.094;11.478;2022-12-29T04:06:23;1.50;;;1.40;;
19456;SDS011;9867;48.094;11.478;2022-12-29T04:08:57;1.43;;;1.33;;
19456;SDS011;9867;48.094;11.478;2022-12-29T04:11:24;1.60;;;1.50;;
19456;SDS011;9867;48.094;11.478;2022-12-29T04:13:58;1.53;;;1.30;;
19456;SDS011;9867;48.094;11.478;2022-12-29T04:16:25;1.13;;;1.13;;
19456;SDS011;9867;48.094;11.478;2022-12-29T04:18:52;1.60;;;1.50;;
19456;SDS011;9867;48.094;11.478;2022-12-29T04:21:19;1.13;;;1.13;;
19456;SDS011;9867;48.094;11.478;2022-12-29T04:23:46;1.50;;;1.50;;
19456;SDS011;9867;48.094;11.478;2022-12-29T04:26:15;1.27;;;1.27;;
19456;SDS011;9867;48.094;11.478;2022-12-29T04:29:00;1.70;;;1.60;;
19456;SDS011;9867;48.094;11.478;2022-12-29T04:31:47;1.47;;;1.43;;
19456;SDS011;9867;48.094;11.478;2022-12-29T04:34:13;1.40;;;1.40;;
19456;SDS011;9867;48.094;11.478;2022-12-29T04:36:40;1.43;;;1.37;;
19456;SDS011;9867;48.094;11.478;2022-12-29T04:39:07;2.43;;;1.60;;
19456;SDS011;9867;48.094;11.478;2022-12-29T04:41:35;1.30;;;1.20;;
19456;SDS011;9867;48.094;11.478;2022-12-29T04:44:03;1.30;;;1.30;;
19456;SDS011;9867;48.094;11.478;2022-12-29T04:46:35;1.43;;;1.33;;
19456;SDS011;9867;48.094;11.478;2022-12-29T04:49:17;1.50;;;1.40;;
19456;SDS011;9867;48.094;11.478;2022-12-29T04:51:49;1.50;;;1.40;;
19456;SDS011;9867;48.094;11.478;2022-12-29T04:54:17;1.83;;;1.60;;
19456;SDS011;9867;48.094;11.478;2022-12-29T04:56:54;1.40;;;1.30;;
19456;SDS011;9867;48.094;11.478;2022-12-29T04:59:20;1.50;;;1.40;;
19456;SDS011;9867;48.094;11.478;2022-12-29T05:01:49;1.30;;;1.20;;
19456;SDS011;9867;48.094;11.478;2022-12-29T05:04:15;1.43;;;1.33;;
19456;SDS011;9867;48.094;11.478;2022-12-29T05:06:43;1.20;;;1.20;;
19456;SDS011;9867;48.094;11.478;2022-12-29T05:09:09;1.60;;;1.50;;
19456;SDS011;9867;48.094;11.478;2022-12-29T05:11:35;1.50;;;1.40;;
19456;SDS011;9867;48.094;11.478;2022-12-29T05:14:03;1.63;;;1.37;;
19456;SDS011;9867;48.094;11.478;2022-12-29T05:16:29;1.57;;;1.47;;
19456;SDS011;9867;48.094;11.478;2022-12-29T05:18:56;2.80;;;1.63;;
19456;SDS011;9867;48.094;11.478;2022-12-29T05:21:23;1.20;;;1.20;;
19456;SDS011;9867;48.094;11.478;2022-12-29T05:23:49;1.57;;;1.47;;
19456;SDS011;9867;48.094;11.478;2022-12-29T05:26:19;2.47;;;1.40;;
19456;SDS011;9867;48.094;11.478;2022-12-29T05:28:54;1.63;;;1.53;;
19456;SDS011;9867;48.094;11.478;2022-12-29T05:31:22;1.67;;;1.57;;
19456;SDS011;9867;48.094;11.478;2022-12-29T05:33:49;1.50;;;1.40;;
19456;SDS011;9867;48.094;11.478;2022-12-29T05:36:16;1.63;;;1.53;;
19456;SDS011;9867;48.094;11.478;2022-12-29T05:38:48;1.73;;;1.50;;
19456;SDS011;9867;48.094;11.478;2022-12-29T05:41:14;1.60;;;1.50;;
19456;SDS011;9867;48.094;11.478;2022-12-29T05:44:07;1.60;;;1.47;;
19456;SDS011;9867;48.094;11.478;2022-12-29T05:46:49;1.63;;;1.53;;
19456;SDS011;9867;48.094;11.478;2022-12-29T05:49:19;1.70;;;1.60;;
19456;SDS011;9867;48.094;11.478;2022-12-29T05:52:00;1.43;;;1.37;;
19456;SDS011;9867;48.094;11.478;2022-12-29T05:54:27;1.50;;;1.40;;
19456;SDS011;9867;48.094;11.478;2022-12-29T05:56:55;3.90;;;1.50;;
19456;SDS011;9867;48.094;11.478;2022-12-29T05:59:21;2.00;;;1.60;;
19456;SDS011;9867;48.094;11.478;2022-12-29T06:01:48;1.70;;;1.60;;
19456;SDS011;9867;48.094;11.478;2022-12-29T06:04:15;1.93;;;1.83;;
19456;SDS011;9867;48.094;11.478;2022-12-29T06:06:42;3.60;;;2.10;;
19456;SDS011;9867;48.094;11.478;2022-12-29T06:09:17;2.00;;;1.90;;
19456;SDS011;9867;48.094;11.478;2022-12-29T06:11:44;1.93;;;1.60;;
19456;SDS011;9867;48.094;11.478;2022-12-29T06:14:10;2.03;;;1.83;;
19456;SDS011;9867;48.094;11.478;2022-12-29T06:16:37;1.97;;;1.77;;
19456;SDS011;9867;48.094;11.478;2022-12-29T06:19:08;2.17;;;2.00;;
19456;SDS011;9867;48.094;11.478;2022-12-29T06:21:35;1.67;;;1.57;;
19456;SDS011;9867;48.094;11.478;2022-12-29T06:24:03;3.43;;;3.00;;
19456;SDS011;9867;48.094;11.478;2022-12-29T06:26:30;3.40;;;1.93;;
19456;SDS011;9867;48.094;11.478;2022-12-29T06:28:56;4.00;;;1.83;;
19456;SDS011;9867;48.094;11.478;2022-12-29T06:31:23;4.03;;;2.33;;
19456;SDS011;9867;48.094;11.478;2022-12-29T06:33:49;1.90;;;1.80;;
19456;SDS011;9867;48.094;11.478;2022-12-29T06:36:17;1.83;;;1.73;;
19456;SDS011;9867;48.094;11.478;2022-12-29T06:38:43;2.17;;;2.00;;
19456;SDS011;9867;48.094;11.478;2022-12-29T06:41:10;2.30;;;2.17;;
19456;SDS011;9867;48.094;11.478;2022-12-29T06:43:55;3.20;;;1.90;;
19456;SDS011;9867;48.094;11.478;2022-12-29T06:46:38;1.90;;;1.80;;
19456;SDS011;9867;48.094;11.478;2022-12-29T06:49:04;2.13;;;1.80;;
19456;SDS011;9867;48.094;11.478;2022-12-29T06:51:31;2.20;;;1.70;;
19456;SDS011;9867;48.094;11.478;2022-12-29T06:53:58;2.17;;;2.03;;
19456;SDS011;9867;48.094;11.478;2022-12-29T06:56:24;2.20;;;2.00;;
19456;SDS011;9867;48.094;11.478;2022-12-29T06:58:51;3.27;;;1.80;;
19456;SDS011;9867;48.094;11.478;2022-12-29T07:01:17;2.03;;;1.93;;
19456;SDS011;9867;48.094;11.478;2022-12-29T07:03:47;2.20;;;2.00;;
19456;SDS011;9867;48.094;11.478;2022-12-29T07:06:14;2.77;;;2.03;;
19456;SDS011;9867;48.094;11.478;2022-12-29T07:08:41;2.13;;;1.80;;
19456;SDS011;9867;48.094;11.478;2022-12-29T07:11:08;1.73;;;1.63;;
19456;SDS011;9867;48.094;11.478;2022-12-29T07:13:35;1.80;;;1.70;;
19456;SDS011;9867;48.094;11.478;2022-12-29T07:16:04;2.13;;;1.70;;
19456;SDS011;9867;48.094;11.478;2022-12-29T07:18:31;3.00;;;1.97;;
19456;SDS011;9867;48.094;11.478;2022-12-29T07:20:58;2.30;;;2.10;;
19456;SDS011;9867;48.094;11.478;2022-12-29T07:23:24;2.33;;;1.90;;
19456;SDS011;9867;48.094;11.478;2022-12-29T07:25:58;1.80;;;1.70;;
19456;SDS011;9867;48.094;11.478;2022-12-29T07:28:25;2.13;;;2.00;;
19456;SDS011;9867;48.094;11.478;2022-12-29T07:30:52;3.90;;;3.50;;
19456;SDS011;9867;48.094;11.478;2022-12-29T07:33:18;3.13;;;2.03;;
19456;SDS011;9867;48.094;11.478;2022-12-29T07:35:45;2.87;;;2.13;;
19456;SDS011;9867;48.094;11.478;2022-12-29T07:38:11;3.57;;;2.00;;
19456;SDS011;9867;48.094;11.478;2022-12-29T07:40:37;2.33;;;1.83;;
19456;SDS011;9867;48.094;11.478;2022-12-29T07:43:04;2.43;;;1.90;;
19456;SDS011;9867;48.094;11.478;2022-12-29T07:45:38;1.60;;;1.50;;
19456;SDS011;9867;48.094;11.478;2022-12-29T07:48:07;1.73;;;1.63;;
19456;SDS011;9867;48.094;11.478;2022-12-29T07:50:34;2.77;;;2.07;;
19456;SDS011;9867;48.094;11.478;2022-12-29T07:53:00;1.97;;;1.43;;
19456;SDS011;9867;48.094;11.478;2022-12-29T07:55:26;2.13;;;1.67;;
19456;SDS011;9867;48.094;11.478;2022-12-29T07:57:53;1.53;;;1.43;;
19456;SDS011;9867;48.094;11.478;2022-12-29T08:00:20;1.93;;;1.40;;
19456;SDS011;9867;48.094;11.478;2022-12-29T08:02:47;1.57;;;1.47;;
19456;SDS011;9867;48.094;11.478;2022-12-29T08:05:14;1.77;;;1.60;;
19456;SDS011;9867;48.094;11.478;2022-12-29T08:07:42;1.50;;;1.40;;
19456;SDS011;9867;48.094;11.478;2022-12-29T08:10:09;2.20;;;2.07;;
19456;SDS011;9867;48.094;11.478;2022-12-29T08:12:39;2.80;;;2.60;;
19456;SDS011;9867;48.094;11.478;2022-12-29T08:15:07;8.80;;;2.37;;
19456;SDS011;9867;48.094;11.478;2022-12-29T08:17:35;3.97;;;1.77;;
19456;SDS011;9867;48.094;11.478;2022-12-29T08:20:02;2.90;;;2.70;;
19456;SDS011;9867;48.094;11.478;2022-12-29T08:22:30;2.30;;;2.10;;
19456;SDS011;9867;48.094;11.478;2022-12-29T08:24:56;2.17;;;1.97;;
19456;SDS011;9867;48.094;11.478;2022-12-29T08:27:23;3.33;;;2.10;;
19456;SDS011;9867;48.094;11.478;2022-12-29T08:29:49;2.13;;;1.90;;
19456;SDS011;9867;48.094;11.478;2022-12-29T08:32:16;2.20;;;1.90;;
19456;SDS011;9867;48.094;11.478;2022-12-29T08:34:43;1.70;;;1.60;;
19456;SDS011;9867;48.094;11.478;2022-12-29T08:37:10;1.90;;;1.80;;
19456;SDS011;9867;48.094;11.478;2022-12-29T08:39:36;1.93;;;1.80;;
19456;SDS011;9867;48.094;11.478;2022-12-29T08:42:03;1.43;;;1.33;;
19456;SDS011;9867;48.094;11.478;2022-12-29T08:44:29;2.43;;;1.63;;
19456;SDS011;9867;48.094;11.478;2022-12-29T08:46:56;3.43;;;2.27;;
19456;SDS011;9867;48.094;11.478;2022-12-29T08:49:22;2.93;;;1.60;;
19456;SDS011;9867;48.094;11.478;2022-12-29T08:51:49;3.03;;;2.07;;
19456;SDS011;9867;48.094;11.478;2022-12-29T08:54:16;2.40;;;2.17;;
19456;SDS011;9867;48.094;11.478;2022-12-29T08:56:43;1.93;;;1.80;;
19456;SDS011;9867;48.094;11.478;2022-12-29T08:59:12;2.50;;;1.97;;
19456;SDS011;9867;48.094;11.478;2022-12-29T09:01:39;2.37;;;2.27;;
19456;SDS011;9867;48.094;11.478;2022-12-29T09:04:06;3.10;;;2.33;;
19456;SDS011;9867;48.094;11.478;2022-12-29T09:06:42;2.70;;;2.27;;
19456;SDS011;9867;48.094;11.478;2022-12-29T09:09:10;2.23;;;1.80;;
19456;SDS011;9867;48.094;11.478;2022-12-29T09:11:36;2.30;;;1.93;;
19456;SDS011;9867;48.094;11.478;2022-12-29T09:14:03;2.13;;;1.93;;
19456;SDS011;9867;48.094;11.478;2022-12-29T09:16:30;3.10;;;2.80;;
19456;SDS011;9867;48.094;11.478;2022-12-29T09:18:56;3.00;;;2.70;;
19456;SDS011;9867;48.094;11.478;2022-12-29T09:21:23;3.63;;;2.07;;
19456;SDS011;9867;48.094;11.478;2022-12-29T09:23:49;2.87;;;2.00;;
19456;SDS011;9867;48.094;11.478;2022-12-29T09:26:17;1.70;;;1.60;;
19456;SDS011;9867;48.094;11.478;2022-12-29T09:28:43;2.87;;;1.40;;
19456;SDS011;9867;48.094;11.478;2022-12-29T09:31:11;1.53;;;1.40;;
19456;SDS011;9867;48.094;11.478;2022-12-29T09:33:38;2.10;;;1.90;;
19456;SDS011;9867;48.094;11.478;2022-12-29T09:36:05;1.40;;;1.40;;
19456;SDS011;9867;48.094;11.478;2022-12-29T09:38:32;1.70;;;1.60;;
19456;SDS011;9867;48.094;11.478;2022-12-29T09:40:59;1.80;;;1.70;;
19456;SDS011;9867;48.094;11.478;2022-12-29T09:43:40;2.83;;;1.40;;
19456;SDS011;9867;48.094;11.478;2022-12-29T09:46:19;1.50;;;1.40;;
19456;SDS011;9867;48.094;11.478;2022-12-29T09:48:51;2.40;;;1.67;;
19456;SDS011;9867;48.094;11.478;2022-12-29T09:51:24;2.20;;;1.50;;
19456;SDS011;9867;48.094;11.478;2022-12-29T09:53:52;1.43;;;1.33;;
19456;SDS011;9867;48.094;11.478;2022-12-29T09:56:23;1.73;;;1.30;;
19456;SDS011;9867;48.094;11.478;2022-12-29T09:58:54;1.57;;;1.47;;
19456;SDS011;9867;48.094;11.478;2022-12-29T10:01:27;2.20;;;1.33;;
19456;SDS011;9867;48.094;11.478;2022-12-29T10:03:59;1.90;;;1.37;;
19456;SDS011;9867;48.094;11.478;2022-12-29T10:06:31;1.50;;;1.40;;
19456;SDS011;9867;48.094;11.478;2022-12-29T10:09:24;1.60;;;1.50;;
19456;SDS011;9867;48.094;11.478;2022-12-29T10:12:03;1.43;;;1.33;;
19456;SDS011;9867;48.094;11.478;2022-12-29T10:14:45;1.93;;;1.40;;
19456;SDS011;9867;48.094;11.478;2022-12-29T10:17:24;1.63;;;1.53;;
19456;SDS011;9867;48.094;11.478;2022-12-29T10:20:02;1.33;;;1.23;;
19456;SDS011;9867;48.094;11.478;2022-12-29T10:22:44;2.07;;;1.50;;
19456;SDS011;9867;48.094;11.478;2022-12-29T10:25:23;4.03;;;3.07;;
19456;SDS011;9867;48.094;11.478;2022-12-29T10:27:57;2.50;;;1.97;;
19456;SDS011;9867;48.094;11.478;2022-12-29T10:30:28;4.07;;;1.90;;
19456;SDS011;9867;48.094;11.478;2022-12-29T10:32:56;2.13;;;1.90;;
19456;SDS011;9867;48.094;11.478;2022-12-29T10:35:25;3.17;;;1.60;;
19456;SDS011;9867;48.094;11.478;2022-12-29T10:37:57;1.70;;;1.60;;
19456;SDS011;9867;48.094;11.478;2022-12-29T10:40:33;2.73;;;1.57;;
19456;SDS011;9867;48.094;11.478;2022-12-29T10:43:07;2.17;;;1.80;;
19456;SDS011;9867;48.094;11.478;2022-12-29T10:45:51;1.97;;;1.80;;
19456;SDS011;9867;48.094;11.478;2022-12-29T10:48:20;4.57;;;1.67;;
19456;SDS011;9867;48.094;11.478;2022-12-29T10:50:57;4.73;;;1.57;;
19456;SDS011;9867;48.094;11.478;2022-12-29T10:53:30;2.10;;;1.73;;
19456;SDS011;9867;48.094;11.478;2022-12-29T10:56:01;2.27;;;1.80;;
19456;SDS011;9867;48.094;11.478;2022-12-29T10:58:35;1.97;;;1.87;;
19456;SDS011;9867;48.094;11.478;2022-12-29T11:01:03;2.73;;;2.30;;
19456;SDS011;9867;48.094;11.478;2022-12-29T11:03:39;2.83;;;2.30;;
19456;SDS011;9867;48.094;11.478;2022-12-29T11:06:15;2.03;;;1.80;;
19456;SDS011;9867;48.094;11.478;2022-12-29T11:08:50;2.40;;;2.20;;
19456;SDS011;9867;48.094;11.478;2022-12-29T11:11:23;2.27;;;1.60;;
19456;SDS011;9867;48.094;11.478;2022-12-29T11:13:55;4.23;;;2.30;;
19456;SDS011;9867;48.094;11.478;2022-12-29T11:16:27;2.43;;;1.80;;
19456;SDS011;9867;48.094;11.478;2022-12-29T11:18:56;1.70;;;1.60;;
19456;SDS011;9867;48.094;11.478;2022-12-29T11:21:24;1.80;;;1.70;;
19456;SDS011;9867;48.094;11.478;2022-12-29T11:23:55;1.77;;;1.67;;
19456;SDS011;9867;48.094;11.478;2022-12-29T11:26:26;1.50;;;1.40;;
19456;SDS011;9867;48.094;11.478;2022-12-29T11:29:14;2.87;;;1.23;;
19456;SDS011;9867;48.094;11.478;2022-12-29T11:31:47;2.10;;;1.30;;
19456;SDS011;9867;48.094;11.478;2022-12-29T11:34:17;3.97;;;1.20;;
19456;SDS011;9867;48.094;11.478;2022-12-29T11:36:45;2.07;;;1.23;;
19456;SDS011;9867;48.094;11.478;2022-12-29T11:39:22;1.63;;;1.33;;
19456;SDS011;9867;48.094;11.478;2022-12-29T11:41:53;2.07;;;1.83;;
19456;SDS011;9867;48.094;11.478;2022-12-29T11:44:20;1.77;;;1.67;;
19456;SDS011;9867;48.094;11.478;2022-12-29T11:46:49;2.10;;;2.00;;
19456;SDS011;9867;48.094;11.478;2022-12-29T11:49:19;1.93;;;1.40;;
19456;SDS011;9867;48.094;11.478;2022-12-29T11:51:47;1.80;;;1.70;;
19456;SDS011;9867;48.094;11.478;2022-12-29T11:54:16;2.90;;;1.60;;
19456;SDS011;9867;48.094;11.478;2022-12-29T11:56:47;1.40;;;1.30;;
19456;SDS011;9867;48.094;11.478;2022-12-29T11:59:25;1.33;;;1.20;;
19456;SDS011;9867;48.094;11.478;2022-12-29T12:02:10;1.40;;;1.30;;
19456;SDS011;9867;48.094;11.478;2022-12-29T12:04:49;1.40;;;1.30;;
19456;SDS011;9867;48.094;11.478;2022-12-29T12:07:20;0.83;;;0.83;;
19456;SDS011;9867;48.094;11.478;2022-12-29T12:09:57;1.30;;;1.20;;
19456;SDS011;9867;48.094;11.478;2022-12-29T12:12:33;1.43;;;1.20;;
19456;SDS011;9867;48.094;11.478;2022-12-29T12:15:04;2.77;;;2.57;;
19456;SDS011;9867;48.094;11.478;2022-12-29T12:17:44;2.27;;;2.07;;
19456;SDS011;9867;48.094;11.478;2022-12-29T12:20:16;3.27;;;1.10;;
19456;SDS011;9867;48.094;11.478;2022-12-29T12:22:49;3.00;;;1.67;;
19456;SDS011;9867;48.094;11.478;2022-12-29T12:25:25;2.13;;;1.40;;
19456;SDS011;9867;48.094;11.478;2022-12-29T12:27:57;1.37;;;1.27;;
19456;SDS011;9867;48.094;11.478;2022-12-29T12:30:26;2.57;;;1.50;;
19456;SDS011;9867;48.094;11.478;2022-12-29T12:32:58;1.60;;;1.50;;
19456;SDS011;9867;48.094;11.478;2022-12-29T12:35:32;1.47;;;1.17;;
19456;SDS011;9867;48.094;11.478;2022-12-29T12:38:13;1.30;;;1.20;;
19456;SDS011;9867;48.094;11.478;2022-12-29T12:41:05;2.10;;;1.30;;
19456;SDS011;9867;48.094;11.478;2022-12-29T12:43:37;2.07;;;1.87;;
19456;SDS011;9867;48.094;11.478;2022-12-29T12:46:23;2.17;;;1.40;;
19456;SDS011;9867;48.094;11.478;2022-12-29T12:52:16;1.30;;;1.10;;
19456;SDS011;9867;48.094;11.478;2022-12-29T12:55:02;3.60;;;1.30;;
19456;SDS011;9867;48.094;11.478;2022-12-29T12:57:46;2.37;;;1.10;;
19456;SDS011;9867;48.094;11.478;2022-12-29T13:00:22;1.57;;;1.30;;
19456;SDS011;9867;48.094;11.478;2022-12-29T13:02:55;2.20;;;1.30;;
19456;SDS011;9867;48.094;11.478;2022-12-29T13:05:50;1.97;;;1.20;;
19456;SDS011;9867;48.094;11.478;2022-12-29T13:08:45;1.60;;;1.20;;
19456;SDS011;9867;48.094;11.478;2022-12-29T13:11:28;1.53;;;1.20;;
19456;SDS011;9867;48.094;11.478;2022-12-29T13:14:12;1.73;;;1.33;;
19456;SDS011;9867;48.094;11.478;2022-12-29T13:16:51;1.17;;;1.13;;
19456;SDS011;9867;48.094;11.478;2022-12-29T13:19:24;1.87;;;1.77;;
19456;SDS011;9867;48.094;11.478;2022-12-29T13:21:57;3.07;;;1.80;;
19456;SDS011;9867;48.094;11.478;2022-12-29T13:24:34;2.70;;;2.10;;
19456;SDS011;9867;48.094;11.478;2022-12-29T13:27:13;2.73;;;2.13;;
19456;SDS011;9867;48.094;11.478;2022-12-29T13:29:48;2.33;;;2.07;;
19456;SDS011;9867;48.094;11.478;2022-12-29T13:32:25;1.50;;;1.40;;
19456;SDS011;9867;48.094;11.478;2022-12-29T13:35:04;2.07;;;1.87;;
19456;SDS011;9867;48.094;11.478;2022-12-29T13:37:50;1.43;;;1.33;;
19456;SDS011;9867;48.094;11.478;2022-12-29T13:40:22;1.40;;;1.30;;
19456;SDS011;9867;48.094;11.478;2022-12-29T13:42:51;2.40;;;1.40;;
19456;SDS011;9867;48.094;11.478;2022-12-29T13:45:19;2.10;;;1.80;;
19456;SDS011;9867;48.094;11.478;2022-12-29T13:47:49;1.43;;;1.10;;
19456;SDS011;9867;48.094;11.478;2022-12-29T13:50:22;2.20;;;1.40;;
19456;SDS011;9867;48.094;11.478;2022-12-29T13:52:53;2.43;;;1.23;;
19456;SDS011;9867;48.094;11.478;2022-12-29T13:55:28;2.97;;;1.33;;
19456;SDS011;9867;48.094;11.478;2022-12-29T13:58:00;2.03;;;1.30;;
19456;SDS011;9867;48.094;11.478;2022-12-29T14:00:32;2.10;;;1.13;;
19456;SDS011;9867;48.094;11.478;2022-12-29T14:06:12;1.73;;;1.30;;
19456;SDS011;9867;48.094;11.478;2022-12-29T14:08:41;2.23;;;1.63;;
19456;SDS011;9867;48.094;11.478;2022-12-29T14:11:09;2.13;;;1.60;;
19456;SDS011;9867;48.094;11.478;2022-12-29T14:13:38;2.90;;;2.60;;
19456;SDS011;9867;48.094;11.478;2022-12-29T14:16:06;2.40;;;2.20;;
19456;SDS011;9867;48.094;11.478;2022-12-29T14:18:41;2.60;;;2.40;;
19456;SDS011;9867;48.094;11.478;2022-12-29T14:21:10;2.67;;;2.00;;
19456;SDS011;9867;48.094;11.478;2022-12-29T14:23:48;3.43;;;2.30;;
19456;SDS011;9867;48.094;11.478;2022-12-29T14:26:17;2.20;;;2.00;;
19456;SDS011;9867;48.094;11.478;2022-12-29T14:31:59;2.37;;;1.77;;
19456;SDS011;9867;48.094;11.478;2022-12-29T14:34:29;2.30;;;2.10;;
19456;SDS011;9867;48.094;11.478;2022-12-29T14:37:03;2.33;;;2.13;;
19456;SDS011;9867;48.094;11.478;2022-12-29T14:39:35;3.63;;;1.93;;
19456;SDS011;9867;48.094;11.478;2022-12-29T14:42:05;4.70;;;1.97;;
19456;SDS011;9867;48.094;11.478;2022-12-29T14:44:45;1.90;;;1.80;;
19456;SDS011;9867;48.094;11.478;2022-12-29T14:47:15;2.13;;;1.97;;
19456;SDS011;9867;48.094;11.478;2022-12-29T14:49:46;2.43;;;2.20;;
19456;SDS011;9867;48.094;11.478;2022-12-29T14:52:14;2.87;;;2.10;;
19456;SDS011;9867;48.094;11.478;2022-12-29T14:54:49;4.80;;;2.10;;
19456;SDS011;9867;48.094;11.478;2022-12-29T14:57:22;4.63;;;2.50;;
19456;SDS011;9867;48.094;11.478;2022-12-29T14:59:54;3.70;;;2.30;;
19456;SDS011;9867;48.094;11.478;2022-12-29T15:02:25;3.27;;;1.90;;
19456;SDS011;9867;48.094;11.478;2022-12-29T15:04:59;5.30;;;2.50;;
19456;SDS011;9867;48.094;11.478;2022-12-29T15:07:28;3.00;;;2.10;;
19456;SDS011;9867;48.094;11.478;2022-12-29T15:09:56;2.67;;;2.30;;
19456;SDS011;9867;48.094;11.478;2022-12-29T15:12:33;3.50;;;2.27;;
19456;SDS011;9867;48.094;11.478;2022-12-29T15:15:13;3.07;;;2.83;;
19456;SDS011;9867;48.094;11.478;2022-12-29T15:17:44;3.70;;;2.63;;
19456;SDS011;9867;48.094;11.478;2022-12-29T15:20:14;3.20;;;2.90;;
19456;SDS011;9867;48.094;11.478;2022-12-29T15:22:46;2.73;;;2.50;;
19456;SDS011;9867;48.094;11.478;2022-12-29T15:25:17;2.70;;;2.43;;
19456;SDS011;9867;48.094;11.478;2022-12-29T15:27:48;3.30;;;3.00;;
19456;SDS011;9867;48.094;11.478;2022-12-29T15:30:17;7.80;;;2.53;;